sensor_id;sensor_type;location;lat;lon;timestamp;pressure;altitude;pressure_sealevel;temperature;humidity
57232;BME280;43488;46.934;8.276;2022-12-07T00:01:44;96546.91;;;3.25;96.29
57232;BME280;43488;46.934;8.276;2022-12-07T00:04:15;96542.06;;;3.22;95.24
57232;BME280;43488;46.934;8.276;2022-12-07T00:06:45;96539.63;;;3.20;94.41
57232;BME280;43488;46.934;8.276;2022-12-07T00:09:16;96540.56;;;3.19;94.60
57232;BME280;43488;46.934;8.276;2022-12-07T00:11:44;96541.53;;;3.18;94.43
57232;BME280;43488;46.934;8.276;2022-12-07T00:14:16;96539.91;;;3.17;93.71
57232;BME280;43488;46.934;8.276;2022-12-07T00:16:44;96548.53;;;3.18;94.35
57232;BME280;43488;46.934;8.276;2022-12-07T00:19:13;96549.19;;;3.20;94.91
57232;BME280;43488;46.934;8.276;2022-12-07T00:21:41;96545.13;;;3.17;94.65
57232;BME280;43488;46.934;8.276;2022-12-07T00:24:09;96550.97;;;3.19;94.31
57232;BME280;43488;46.934;8.276;2022-12-07T00:26:39;96541.53;;;3.18;93.79
57232;BME280;43488;46.934;8.276;2022-12-07T00:29:18;96547.56;;;3.19;92.99
57232;BME280;43488;46.934;8.276;2022-12-07T00:31:46;96544.13;;;3.18;93.01
57232;BME280;43488;46.934;8.276;2022-12-07T00:34:20;96541.53;;;3.18;93.31
57232;BME280;43488;46.934;8.276;2022-12-07T00:36:49;96538.78;;;3.20;93.11
57232;BME280;43488;46.934;8.276;2022-12-07T00:39:16;96529.31;;;3.10;89.27
57232;BME280;43488;46.934;8.276;2022-12-07T00:41:43;96530.66;;;3.14;88.94
57232;BME280;43488;46.934;8.276;2022-12-07T00:44:11;96532.78;;;3.11;90.90
57232;BME280;43488;46.934;8.276;2022-12-07T00:46:39;96529.50;;;3.09;92.79
57232;BME280;43488;46.934;8.276;2022-12-07T00:49:08;96529.66;;;3.07;93.50
57232;BME280;43488;46.934;8.276;2022-12-07T00:51:36;96524.13;;;3.10;94.17
57232;BME280;43488;46.934;8.276;2022-12-07T00:54:04;96527.56;;;3.11;93.63
57232;BME280;43488;46.934;8.276;2022-12-07T00:56:32;96531.13;;;3.10;93.17
57232;BME280;43488;46.934;8.276;2022-12-07T00:59:02;96529.50;;;3.09;93.12
57232;BME280;43488;46.934;8.276;2022-12-07T01:01:34;96521.03;;;3.07;93.91
57232;BME280;43488;46.934;8.276;2022-12-07T01:04:02;96526.06;;;3.08;93.19
57232;BME280;43488;46.934;8.276;2022-12-07T01:06:30;96529.00;;;3.05;93.04
57232;BME280;43488;46.934;8.276;2022-12-07T01:08:58;96523.66;;;3.07;92.54
57232;BME280;43488;46.934;8.276;2022-12-07T01:11:29;96529.66;;;3.07;92.77
57232;BME280;43488;46.934;8.276;2022-12-07T01:13:58;96527.22;;;3.06;92.19
57232;BME280;43488;46.934;8.276;2022-12-07T01:16:29;96528.03;;;3.06;92.89
57232;BME280;43488;46.934;8.276;2022-12-07T01:18:58;96530.47;;;3.08;93.28
57232;BME280;43488;46.934;8.276;2022-12-07T01:21:34;96525.44;;;3.06;93.57
57232;BME280;43488;46.934;8.276;2022-12-07T01:24:06;96527.38;;;3.04;93.39
57232;BME280;43488;46.934;8.276;2022-12-07T01:26:34;96525.75;;;3.03;93.82
57232;BME280;43488;46.934;8.276;2022-12-07T01:29:02;96527.38;;;2.96;93.22
57232;BME280;43488;46.934;8.276;2022-12-07T01:31:31;96533.84;;;3.00;92.62
57232;BME280;43488;46.934;8.276;2022-12-07T01:34:00;96528.34;;;3.03;92.55
57232;BME280;43488;46.934;8.276;2022-12-07T01:36:31;96534.22;;;3.05;92.90
57232;BME280;43488;46.934;8.276;2022-12-07T01:39:03;96534.22;;;3.05;91.36
57232;BME280;43488;46.934;8.276;2022-12-07T01:41:35;96526.56;;;3.04;90.89
57232;BME280;43488;46.934;8.276;2022-12-07T01:44:19;96530.97;;;3.03;90.75
57232;BME280;43488;46.934;8.276;2022-12-07T01:46:58;96536.97;;;3.04;90.67
57232;BME280;43488;46.934;8.276;2022-12-07T01:49:45;96530.78;;;2.97;91.18
57232;BME280;43488;46.934;8.276;2022-12-07T01:52:41;96533.72;;;2.94;91.40
57232;BME280;43488;46.934;8.276;2022-12-07T01:55:13;96532.22;;;2.91;91.09
57232;BME280;43488;46.934;8.276;2022-12-07T01:57:47;96530.13;;;2.95;91.26
57232;BME280;43488;46.934;8.276;2022-12-07T02:00:16;96529.81;;;2.98;91.48
57232;BME280;43488;46.934;8.276;2022-12-07T02:03:06;96529.97;;;2.96;91.39
57232;BME280;43488;46.934;8.276;2022-12-07T02:05:35;96533.84;;;3.00;89.76
57232;BME280;43488;46.934;8.276;2022-12-07T02:08:05;96521.84;;;2.99;88.81
57232;BME280;43488;46.934;8.276;2022-12-07T02:10:33;96526.22;;;2.99;88.48
57232;BME280;43488;46.934;8.276;2022-12-07T02:13:28;96521.03;;;2.99;87.94
57232;BME280;43488;46.934;8.276;2022-12-07T02:27:45;96520.22;;;2.98;87.35
57232;BME280;43488;46.934;8.276;2022-12-07T02:30:20;96521.03;;;2.99;88.36
57232;BME280;43488;46.934;8.276;2022-12-07T02:33:24;96514.19;;;2.98;88.22
57232;BME280;43488;46.934;8.276;2022-12-07T02:36:04;96519.22;;;2.99;88.97
57232;BME280;43488;46.934;8.276;2022-12-07T02:38:48;96511.94;;;2.95;89.32
57232;BME280;43488;46.934;8.276;2022-12-07T02:44:17;96511.94;;;2.95;89.78
57232;BME280;43488;46.934;8.276;2022-12-07T02:46:54;96502.97;;;2.97;89.66
57232;BME280;43488;46.934;8.276;2022-12-07T02:49:23;96504.78;;;2.97;89.06
57232;BME280;43488;46.934;8.276;2022-12-07T02:51:52;96505.59;;;2.97;89.29
57232;BME280;43488;46.934;8.276;2022-12-07T02:54:22;96505.75;;;2.96;89.07
57232;BME280;43488;46.934;8.276;2022-12-07T03:03:11;96502.50;;;2.94;90.22
57232;BME280;43488;46.934;8.276;2022-12-07T03:11:33;96484.75;;;2.89;91.98
57232;BME280;43488;46.934;8.276;2022-12-07T03:14:25;96486.22;;;2.92;92.40
57232;BME280;43488;46.934;8.276;2022-12-07T03:17:14;96487.69;;;2.86;92.33
57232;BME280;43488;46.934;8.276;2022-12-07T03:19:45;96479.56;;;2.89;92.14
57232;BME280;43488;46.934;8.276;2022-12-07T03:22:16;96481.19;;;2.90;92.71
57232;BME280;43488;46.934;8.276;2022-12-07T03:24:58;96479.72;;;2.88;93.86
57232;BME280;43488;46.934;8.276;2022-12-07T03:27:35;96477.44;;;2.84;93.58
57232;BME280;43488;46.934;8.276;2022-12-07T03:30:22;96478.91;;;2.87;92.98
57232;BME280;43488;46.934;8.276;2022-12-07T03:33:40;96475.00;;;2.83;92.43
57232;BME280;43488;46.934;8.276;2022-12-07T03:41:39;96477.28;;;2.86;92.03
57232;BME280;43488;46.934;8.276;2022-12-07T03:44:08;96474.03;;;2.84;93.44
57232;BME280;43488;46.934;8.276;2022-12-07T03:52:44;96468.00;;;2.75;94.24
57232;BME280;43488;46.934;8.276;2022-12-07T03:55:30;96474.31;;;2.73;94.81
57232;BME280;43488;46.934;8.276;2022-12-07T03:58:06;96459.41;;;2.75;93.92
57232;BME280;43488;46.934;8.276;2022-12-07T04:00:36;96467.69;;;2.78;93.13
57232;BME280;43488;46.934;8.276;2022-12-07T04:03:04;96466.38;;;2.82;93.00
57232;BME280;43488;46.934;8.276;2022-12-07T04:05:31;96465.44;;;2.83;93.15
57232;BME280;43488;46.934;8.276;2022-12-07T04:07:59;96465.56;;;2.82;93.23
57232;BME280;43488;46.934;8.276;2022-12-07T04:10:26;96474.84;;;2.84;92.57
57232;BME280;43488;46.934;8.276;2022-12-07T04:12:55;96463.66;;;2.84;93.13
57232;BME280;43488;46.934;8.276;2022-12-07T04:15:22;96465.56;;;2.82;94.97
57232;BME280;43488;46.934;8.276;2022-12-07T04:17:51;96471.25;;;2.77;95.27
57232;BME280;43488;46.934;8.276;2022-12-07T04:20:19;96460.84;;;2.77;95.78
57232;BME280;43488;46.934;8.276;2022-12-07T04:22:46;96467.69;;;2.78;95.44
57232;BME280;43488;46.934;8.276;2022-12-07T04:25:13;96466.88;;;2.78;94.92
57232;BME280;43488;46.934;8.276;2022-12-07T04:27:41;96477.44;;;2.76;95.72
57232;BME280;43488;46.934;8.276;2022-12-07T04:30:11;96478.09;;;2.78;96.05
57232;BME280;43488;46.934;8.276;2022-12-07T04:32:39;96478.72;;;2.80;96.00
57232;BME280;43488;46.934;8.276;2022-12-07T04:35:09;96474.19;;;2.82;95.74
57232;BME280;43488;46.934;8.276;2022-12-07T04:37:36;96474.84;;;2.84;94.60
57232;BME280;43488;46.934;8.276;2022-12-07T04:40:08;96475.00;;;2.83;94.65
57232;BME280;43488;46.934;8.276;2022-12-07T04:42:38;96475.50;;;2.87;95.51
57232;BME280;43488;46.934;8.276;2022-12-07T04:45:06;96477.13;;;2.88;94.25
57232;BME280;43488;46.934;8.276;2022-12-07T04:47:33;96470.63;;;2.83;89.32
57232;BME280;43488;46.934;8.276;2022-12-07T04:50:01;96475.00;;;2.83;88.14
57232;BME280;43488;46.934;8.276;2022-12-07T04:52:28;96472.56;;;2.81;88.65
57232;BME280;43488;46.934;8.276;2022-12-07T04:54:57;96471.91;;;2.79;86.70
57232;BME280;43488;46.934;8.276;2022-12-07T04:57:24;96480.03;;;2.76;87.25
57232;BME280;43488;46.934;8.276;2022-12-07T04:59:52;96475.31;;;2.80;86.83
57232;BME280;43488;46.934;8.276;2022-12-07T05:02:20;96476.13;;;2.80;87.01
57232;BME280;43488;46.934;8.276;2022-12-07T05:04:48;96476.47;;;2.77;86.27
57232;BME280;43488;46.934;8.276;2022-12-07T05:07:16;96481.97;;;2.74;85.52
57232;BME280;43488;46.934;8.276;2022-12-07T05:09:43;96478.41;;;2.75;83.92
57232;BME280;43488;46.934;8.276;2022-12-07T05:12:11;96484.25;;;2.77;83.90
57232;BME280;43488;46.934;8.276;2022-12-07T05:14:39;96480.69;;;2.78;84.39
57232;BME280;43488;46.934;8.276;2022-12-07T05:17:06;96485.06;;;2.78;83.77
57232;BME280;43488;46.934;8.276;2022-12-07T05:19:34;96477.59;;;2.75;84.71
57232;BME280;43488;46.934;8.276;2022-12-07T05:22:01;96481.97;;;2.74;86.31
57232;BME280;43488;46.934;8.276;2022-12-07T05:24:29;96486.50;;;2.72;85.98
57232;BME280;43488;46.934;8.276;2022-12-07T05:26:56;96477.41;;;2.68;87.59
57232;BME280;43488;46.934;8.276;2022-12-07T05:29:23;96485.41;;;2.75;88.54
57232;BME280;43488;46.934;8.276;2022-12-07T05:31:51;96480.34;;;2.73;89.21
57232;BME280;43488;46.934;8.276;2022-12-07T05:34:19;96481.97;;;2.74;89.89
57232;BME280;43488;46.934;8.276;2022-12-07T05:36:47;96471.25;;;2.77;90.45
57232;BME280;43488;46.934;8.276;2022-12-07T05:39:14;96473.03;;;2.77;90.34
57232;BME280;43488;46.934;8.276;2022-12-07T05:41:41;96474.47;;;2.71;89.91
57232;BME280;43488;46.934;8.276;2022-12-07T05:44:27;96472.53;;;2.73;90.16
57232;BME280;43488;46.934;8.276;2022-12-07T05:46:55;96473.50;;;2.72;90.68
57232;BME280;43488;46.934;8.276;2022-12-07T05:49:23;96475.13;;;2.73;91.03
57232;BME280;43488;46.934;8.276;2022-12-07T05:51:53;96478.06;;;2.70;91.81
57232;BME280;43488;46.934;8.276;2022-12-07T05:54:20;96476.09;;;2.72;91.97
57232;BME280;43488;46.934;8.276;2022-12-07T05:56:48;96477.09;;;2.71;92.58
57232;BME280;43488;46.934;8.276;2022-12-07T05:59:16;96484.59;;;2.74;92.71
57232;BME280;43488;46.934;8.276;2022-12-07T06:01:57;96470.63;;;2.75;92.94
57232;BME280;43488;46.934;8.276;2022-12-07T06:04:28;96468.16;;;2.74;92.59
57232;BME280;43488;46.934;8.276;2022-12-07T06:06:56;96474.19;;;2.74;92.12
57232;BME280;43488;46.934;8.276;2022-12-07T06:09:27;96471.59;;;2.74;91.60
57232;BME280;43488;46.934;8.276;2022-12-07T06:11:55;96469.81;;;2.75;90.63
57232;BME280;43488;46.934;8.276;2022-12-07T06:14:41;96475.00;;;2.75;89.81
57232;BME280;43488;46.934;8.276;2022-12-07T06:17:10;96476.47;;;2.77;89.52
57232;BME280;43488;46.934;8.276;2022-12-07T06:19:39;96482.63;;;2.76;89.30
57232;BME280;43488;46.934;8.276;2022-12-07T06:22:07;96487.84;;;2.76;88.56
57232;BME280;43488;46.934;8.276;2022-12-07T06:24:36;96478.53;;;2.74;88.42
57232;BME280;43488;46.934;8.276;2022-12-07T06:27:04;96482.59;;;2.68;87.82
57232;BME280;43488;46.934;8.276;2022-12-07T06:29:33;96486.66;;;2.71;86.45
57232;BME280;43488;46.934;8.276;2022-12-07T06:32:00;96475.13;;;2.73;86.12
57232;BME280;43488;46.934;8.276;2022-12-07T06:34:27;96481.97;;;2.74;86.24
57232;BME280;43488;46.934;8.276;2022-12-07T06:36:55;96477.44;;;2.76;86.16
57232;BME280;43488;46.934;8.276;2022-12-07T06:39:26;96479.22;;;2.76;85.98
57232;BME280;43488;46.934;8.276;2022-12-07T06:41:55;96477.44;;;2.76;86.38
57232;BME280;43488;46.934;8.276;2022-12-07T06:44:23;96474.84;;;2.76;86.94
57232;BME280;43488;46.934;8.276;2022-12-07T06:46:51;96474.19;;;2.74;87.54
57232;BME280;43488;46.934;8.276;2022-12-07T06:49:19;96480.34;;;2.81;88.07
57232;BME280;43488;46.934;8.276;2022-12-07T06:51:48;96472.56;;;2.81;87.24
57232;BME280;43488;46.934;8.276;2022-12-07T06:54:17;96482.47;;;2.78;87.62
57232;BME280;43488;46.934;8.276;2022-12-07T06:56:44;96478.41;;;2.75;87.93
57232;BME280;43488;46.934;8.276;2022-12-07T06:59:12;96481.31;;;2.72;87.94
57232;BME280;43488;46.934;8.276;2022-12-07T07:01:40;96482.81;;;2.75;89.00
57232;BME280;43488;46.934;8.276;2022-12-07T07:04:07;96486.03;;;2.77;89.12
57232;BME280;43488;46.934;8.276;2022-12-07T07:06:35;96483.59;;;2.75;88.51
57232;BME280;43488;46.934;8.276;2022-12-07T07:09:02;96492.06;;;2.77;87.71
57232;BME280;43488;46.934;8.276;2022-12-07T07:11:30;96484.41;;;2.76;87.29
57232;BME280;43488;46.934;8.276;2022-12-07T07:13:57;96487.66;;;2.78;87.75
57232;BME280;43488;46.934;8.276;2022-12-07T07:16:30;96492.22;;;2.76;87.12
57232;BME280;43488;46.934;8.276;2022-12-07T07:18:59;96500.84;;;2.76;87.36
57232;BME280;43488;46.934;8.276;2022-12-07T07:21:26;96491.25;;;2.77;86.46
57232;BME280;43488;46.934;8.276;2022-12-07T07:23:53;96498.06;;;2.78;85.74
57232;BME280;43488;46.934;8.276;2022-12-07T07:26:21;96503.09;;;2.79;86.08
57232;BME280;43488;46.934;8.276;2022-12-07T07:28:49;96497.56;;;2.82;86.88
57232;BME280;43488;46.934;8.276;2022-12-07T07:31:17;96494.97;;;2.82;86.92
57232;BME280;43488;46.934;8.276;2022-12-07T07:33:46;96497.44;;;2.84;87.09
57232;BME280;43488;46.934;8.276;2022-12-07T07:36:13;96489.47;;;2.85;87.15
57232;BME280;43488;46.934;8.276;2022-12-07T07:38:41;96494.84;;;2.84;86.58
57232;BME280;43488;46.934;8.276;2022-12-07T07:41:09;96502.66;;;2.84;86.66
57232;BME280;43488;46.934;8.276;2022-12-07T07:43:36;96506.31;;;2.73;89.88
57232;BME280;43488;46.934;8.276;2022-12-07T07:46:03;96511.84;;;2.70;89.96
57232;BME280;43488;46.934;8.276;2022-12-07T07:48:31;96514.44;;;2.70;89.31
57232;BME280;43488;46.934;8.276;2022-12-07T07:50:58;96511.53;;;2.73;89.16
57232;BME280;43488;46.934;8.276;2022-12-07T07:53:25;96508.28;;;2.71;87.79
57232;BME280;43488;46.934;8.276;2022-12-07T07:55:54;96515.44;;;2.69;86.96
57232;BME280;43488;46.934;8.276;2022-12-07T07:58:22;96511.84;;;2.70;85.99
57232;BME280;43488;46.934;8.276;2022-12-07T08:00:49;96505.50;;;2.73;86.44
57232;BME280;43488;46.934;8.276;2022-12-07T08:03:17;96500.03;;;2.76;87.33
57232;BME280;43488;46.934;8.276;2022-12-07T08:05:44;96511.88;;;2.78;87.27
57232;BME280;43488;46.934;8.276;2022-12-07T08:08:12;96501.66;;;2.77;86.70
57232;BME280;43488;46.934;8.276;2022-12-07T08:10:40;96504.56;;;2.82;87.31
57232;BME280;43488;46.934;8.276;2022-12-07T08:13:07;96515.13;;;2.80;88.03
57232;BME280;43488;46.934;8.276;2022-12-07T08:15:41;96520.16;;;2.82;88.65
57232;BME280;43488;46.934;8.276;2022-12-07T08:18:10;96524.88;;;2.78;88.17
57232;BME280;43488;46.934;8.276;2022-12-07T08:20:42;96518.25;;;2.84;86.95
57232;BME280;43488;46.934;8.276;2022-12-07T08:23:10;96523.94;;;2.88;86.70
57232;BME280;43488;46.934;8.276;2022-12-07T08:25:40;96523.94;;;2.88;87.84
57232;BME280;43488;46.934;8.276;2022-12-07T08:28:08;96521.00;;;2.91;88.78
57232;BME280;43488;46.934;8.276;2022-12-07T08:30:36;96525.22;;;2.92;89.23
57232;BME280;43488;46.934;8.276;2022-12-07T08:33:03;96523.59;;;2.91;89.15
57232;BME280;43488;46.934;8.276;2022-12-07T08:35:33;96524.75;;;2.96;89.98
57232;BME280;43488;46.934;8.276;2022-12-07T08:38:02;96525.09;;;3.01;89.61
57232;BME280;43488;46.934;8.276;2022-12-07T08:40:30;96518.78;;;3.04;88.48
57232;BME280;43488;46.934;8.276;2022-12-07T08:42:58;96520.41;;;3.05;87.71
57232;BME280;43488;46.934;8.276;2022-12-07T08:45:25;96516.63;;;2.99;87.86
57232;BME280;43488;46.934;8.276;2022-12-07T08:48:11;96518.59;;;2.97;86.28
57232;BME280;43488;46.934;8.276;2022-12-07T08:50:40;96517.44;;;3.00;86.48
57232;BME280;43488;46.934;8.276;2022-12-07T08:53:08;96522.47;;;3.01;86.70
57232;BME280;43488;46.934;8.276;2022-12-07T08:55:35;96518.44;;;3.07;85.23
57232;BME280;43488;46.934;8.276;2022-12-07T08:58:03;96520.41;;;3.05;83.85
57232;BME280;43488;46.934;8.276;2022-12-07T09:00:30;96511.13;;;3.10;84.45
57232;BME280;43488;46.934;8.276;2022-12-07T09:02:58;96527.56;;;3.11;85.33
57232;BME280;43488;46.934;8.276;2022-12-07T09:05:25;96515.66;;;3.08;86.46
57232;BME280;43488;46.934;8.276;2022-12-07T09:07:57;96525.91;;;3.10;84.79
57232;BME280;43488;46.934;8.276;2022-12-07T09:10:28;96526.06;;;3.08;83.78
57232;BME280;43488;46.934;8.276;2022-12-07T09:12:56;96524.81;;;3.12;83.46
57232;BME280;43488;46.934;8.276;2022-12-07T09:15:29;96527.25;;;3.14;82.73
57232;BME280;43488;46.934;8.276;2022-12-07T09:17:57;96521.06;;;3.15;82.75
57232;BME280;43488;46.934;8.276;2022-12-07T09:20:24;96520.56;;;3.20;83.09
57232;BME280;43488;46.934;8.276;2022-12-07T09:22:51;96515.69;;;3.25;83.46
57232;BME280;43488;46.934;8.276;2022-12-07T09:25:18;96521.56;;;3.27;83.47
57232;BME280;43488;46.934;8.276;2022-12-07T09:27:46;96517.16;;;3.27;83.18
57232;BME280;43488;46.934;8.276;2022-12-07T09:30:13;96521.38;;;3.28;82.99
57232;BME280;43488;46.934;8.276;2022-12-07T09:32:40;96518.31;;;3.33;83.35
57232;BME280;43488;46.934;8.276;2022-12-07T09:35:08;96519.13;;;3.33;82.98
57232;BME280;43488;46.934;8.276;2022-12-07T09:37:35;96517.34;;;3.34;82.83
57232;BME280;43488;46.934;8.276;2022-12-07T09:40:05;96515.22;;;3.37;82.82
57232;BME280;43488;46.934;8.276;2022-12-07T09:42:39;96520.13;;;3.40;83.17
57232;BME280;43488;46.934;8.276;2022-12-07T09:45:15;96516.19;;;3.45;83.41
57232;BME280;43488;46.934;8.276;2022-12-07T09:47:43;96512.31;;;3.40;82.13
57232;BME280;43488;46.934;8.276;2022-12-07T09:50:19;96515.88;;;3.39;81.96
57232;BME280;43488;46.934;8.276;2022-12-07T09:52:48;96506.94;;;3.42;81.99
57232;BME280;43488;46.934;8.276;2022-12-07T09:55:21;96501.56;;;3.43;80.67
57232;BME280;43488;46.934;8.276;2022-12-07T09:57:52;96505.94;;;3.35;80.78
57232;BME280;43488;46.934;8.276;2022-12-07T10:00:22;96501.91;;;3.40;81.15
57232;BME280;43488;46.934;8.276;2022-12-07T10:02:59;96503.53;;;3.41;81.82
57232;BME280;43488;46.934;8.276;2022-12-07T10:05:41;96501.41;;;3.45;82.81
57232;BME280;43488;46.934;8.276;2022-12-07T10:08:13;96502.88;;;3.48;83.01
57232;BME280;43488;46.934;8.276;2022-12-07T10:10:43;96501.56;;;3.52;82.59
57232;BME280;43488;46.934;8.276;2022-12-07T10:13:45;96497.16;;;3.44;82.76
57232;BME280;43488;46.934;8.276;2022-12-07T10:18:52;96497.97;;;3.53;82.03
57232;BME280;43488;46.934;8.276;2022-12-07T10:21:28;96485.59;;;3.55;81.03
57232;BME280;43488;46.934;8.276;2022-12-07T10:24:05;96494.41;;;3.54;80.59
57232;BME280;43488;46.934;8.276;2022-12-07T10:26:51;96488.88;;;3.57;80.44
57232;BME280;43488;46.934;8.276;2022-12-07T10:29:37;96485.59;;;3.63;80.18
57232;BME280;43488;46.934;8.276;2022-12-07T10:32:31;96481.22;;;3.63;79.40
57232;BME280;43488;46.934;8.276;2022-12-07T10:37:49;96481.72;;;3.59;79.81
57232;BME280;43488;46.934;8.276;2022-12-07T10:40:33;96479.75;;;3.61;80.40
57232;BME280;43488;46.934;8.276;2022-12-07T11:06:41;96459.91;;;3.76;80.42
57232;BME280;43488;46.934;8.276;2022-12-07T11:09:14;96445.56;;;3.72;81.84
57232;BME280;43488;46.934;8.276;2022-12-07T11:15:08;96448.50;;;3.77;79.68
57232;BME280;43488;46.934;8.276;2022-12-07T11:24:15;96426.03;;;3.76;77.58
57232;BME280;43488;46.934;8.276;2022-12-07T11:27:07;96430.59;;;3.74;77.30
57232;BME280;43488;46.934;8.276;2022-12-07T11:38:26;96409.72;;;3.82;76.49
57232;BME280;43488;46.934;8.276;2022-12-07T11:41:02;96412.50;;;3.81;76.13
57232;BME280;43488;46.934;8.276;2022-12-07T11:46:25;96401.63;;;3.77;76.61
57232;BME280;43488;46.934;8.276;2022-12-07T11:49:27;96398.03;;;3.78;76.65
57232;BME280;43488;46.934;8.276;2022-12-07T11:52:06;96390.56;;;3.75;75.76
57232;BME280;43488;46.934;8.276;2022-12-07T11:54:41;96391.88;;;3.71;75.24
57232;BME280;43488;46.934;8.276;2022-12-07T11:57:24;96385.03;;;3.78;75.59
57232;BME280;43488;46.934;8.276;2022-12-07T12:00:05;96391.50;;;3.82;75.81
57232;BME280;43488;46.934;8.276;2022-12-07T12:03:08;96392.84;;;3.78;75.67
57232;BME280;43488;46.934;8.276;2022-12-07T12:05:39;96382.59;;;3.77;74.88
57232;BME280;43488;46.934;8.276;2022-12-07T12:08:27;96383.22;;;3.79;75.02
57232;BME280;43488;46.934;8.276;2022-12-07T12:14:15;96372.97;;;3.85;75.72
57232;BME280;43488;46.934;8.276;2022-12-07T12:22:21;96360.06;;;3.84;74.44
57232;BME280;43488;46.934;8.276;2022-12-07T12:24:53;96366.63;;;3.80;74.60
57232;BME280;43488;46.934;8.276;2022-12-07T12:27:26;96370.03;;;3.80;74.65
57232;BME280;43488;46.934;8.276;2022-12-07T12:30:00;96366.28;;;3.83;74.61
57232;BME280;43488;46.934;8.276;2022-12-07T12:32:42;96362.69;;;3.84;74.47
57232;BME280;43488;46.934;8.276;2022-12-07T12:35:33;96367.91;;;3.84;74.47
57232;BME280;43488;46.934;8.276;2022-12-07T12:40:55;96356.53;;;3.85;75.02
57232;BME280;43488;46.934;8.276;2022-12-07T12:43:50;96357.34;;;3.85;74.07
57232;BME280;43488;46.934;8.276;2022-12-07T12:51:53;96353.09;;;3.84;74.25
57232;BME280;43488;46.934;8.276;2022-12-07T12:54:34;96350.16;;;3.87;74.47
57232;BME280;43488;46.934;8.276;2022-12-07T12:57:29;96343.97;;;3.88;74.35
57232;BME280;43488;46.934;8.276;2022-12-07T12:59:59;96344.13;;;3.87;74.10
57232;BME280;43488;46.934;8.276;2022-12-07T13:02:58;96340.38;;;3.89;73.92
57232;BME280;43488;46.934;8.276;2022-12-07T13:05:29;96340.91;;;3.85;74.35
57232;BME280;43488;46.934;8.276;2022-12-07T13:10:45;96328.50;;;3.87;73.70
57232;BME280;43488;46.934;8.276;2022-12-07T13:18:36;96321.16;;;3.90;73.25
57232;BME280;43488;46.934;8.276;2022-12-07T13:26:19;96315.94;;;3.90;74.29
57232;BME280;43488;46.934;8.276;2022-12-07T13:31:41;96307.16;;;3.91;73.71
57232;BME280;43488;46.934;8.276;2022-12-07T13:34:40;96302.94;;;3.90;73.48
57232;BME280;43488;46.934;8.276;2022-12-07T13:37:24;96307.31;;;3.90;74.28
57232;BME280;43488;46.934;8.276;2022-12-07T13:44:54;96305.72;;;3.89;73.46
57232;BME280;43488;46.934;8.276;2022-12-07T13:47:47;96299.69;;;3.88;73.74
57232;BME280;43488;46.934;8.276;2022-12-07T13:50:28;96303.28;;;3.87;73.93
57232;BME280;43488;46.934;8.276;2022-12-07T13:53:01;96291.69;;;3.90;74.23
57232;BME280;43488;46.934;8.276;2022-12-07T13:55:28;96298.53;;;3.91;73.51
57232;BME280;43488;46.934;8.276;2022-12-07T13:57:56;96292.34;;;3.92;74.24
57232;BME280;43488;46.934;8.276;2022-12-07T14:00:27;96294.13;;;3.91;73.81
57232;BME280;43488;46.934;8.276;2022-12-07T14:05:32;96289.09;;;3.90;73.29
57232;BME280;43488;46.934;8.276;2022-12-07T14:08:04;96295.28;;;3.89;72.65
57232;BME280;43488;46.934;8.276;2022-12-07T14:10:36;96285.69;;;3.89;73.24
57232;BME280;43488;46.934;8.276;2022-12-07T14:15:55;96294.31;;;3.90;73.25
57232;BME280;43488;46.934;8.276;2022-12-07T14:18:38;96282.44;;;3.87;73.33
57232;BME280;43488;46.934;8.276;2022-12-07T14:23:38;96282.81;;;3.84;73.76
57232;BME280;43488;46.934;8.276;2022-12-07T14:26:20;96287.16;;;3.84;74.30
57232;BME280;43488;46.934;8.276;2022-12-07T14:28:47;96285.41;;;3.84;74.04
57232;BME280;43488;46.934;8.276;2022-12-07T14:31:21;96286.22;;;3.85;74.00
57232;BME280;43488;46.934;8.276;2022-12-07T14:33:50;96286.34;;;3.83;74.47
57232;BME280;43488;46.934;8.276;2022-12-07T14:36:17;96283.59;;;3.85;74.41
57232;BME280;43488;46.934;8.276;2022-12-07T14:38:45;96287.84;;;3.86;74.17
57232;BME280;43488;46.934;8.276;2022-12-07T14:41:24;96288.00;;;3.84;74.07
57232;BME280;43488;46.934;8.276;2022-12-07T14:44:12;96287.34;;;3.82;73.62
57232;BME280;43488;46.934;8.276;2022-12-07T14:46:39;96285.09;;;3.79;73.25
57232;BME280;43488;46.934;8.276;2022-12-07T14:49:07;96287.69;;;3.79;73.87
57232;BME280;43488;46.934;8.276;2022-12-07T14:51:40;96289.47;;;3.79;74.27
57232;BME280;43488;46.934;8.276;2022-12-07T14:54:18;96287.06;;;3.77;74.68
57232;BME280;43488;46.934;8.276;2022-12-07T14:56:46;96291.28;;;3.78;75.06
57232;BME280;43488;46.934;8.276;2022-12-07T14:59:17;96294.53;;;3.80;75.75
57232;BME280;43488;46.934;8.276;2022-12-07T15:01:45;96287.88;;;3.78;75.27
57232;BME280;43488;46.934;8.276;2022-12-07T15:04:13;96287.88;;;3.78;74.89
57232;BME280;43488;46.934;8.276;2022-12-07T15:07:03;96278.25;;;3.78;75.47
57232;BME280;43488;46.934;8.276;2022-12-07T15:09:31;96286.06;;;3.78;75.59
57232;BME280;43488;46.934;8.276;2022-12-07T15:12:01;96287.06;;;3.77;76.13
57232;BME280;43488;46.934;8.276;2022-12-07T15:14:30;96287.88;;;3.78;76.25
57232;BME280;43488;46.934;8.276;2022-12-07T15:16:58;96285.25;;;3.78;76.51
57232;BME280;43488;46.934;8.276;2022-12-07T15:19:25;96287.88;;;3.78;76.88
57232;BME280;43488;46.934;8.276;2022-12-07T15:21:54;96281.69;;;3.79;76.54
57232;BME280;43488;46.934;8.276;2022-12-07T15:24:21;96276.00;;;3.75;78.14
57232;BME280;43488;46.934;8.276;2022-12-07T15:26:53;96279.56;;;3.74;78.07
57232;BME280;43488;46.934;8.276;2022-12-07T15:29:21;96270.94;;;3.74;77.88
57232;BME280;43488;46.934;8.276;2022-12-07T15:31:52;96265.28;;;3.70;79.40
57232;BME280;43488;46.934;8.276;2022-12-07T15:34:19;96271.47;;;3.69;80.47
57232;BME280;43488;46.934;8.276;2022-12-07T15:36:47;96266.44;;;3.67;80.71
57232;BME280;43488;46.934;8.276;2022-12-07T15:39:15;96265.13;;;3.63;80.77
57232;BME280;43488;46.934;8.276;2022-12-07T15:41:43;96261.41;;;3.66;81.26
57232;BME280;43488;46.934;8.276;2022-12-07T15:44:12;96265.28;;;3.70;82.32
57232;BME280;43488;46.934;8.276;2022-12-07T15:46:59;96256.13;;;3.74;82.79
57232;BME280;43488;46.934;8.276;2022-12-07T15:49:27;96254.19;;;3.76;82.64
57232;BME280;43488;46.934;8.276;2022-12-07T15:51:55;96264.59;;;3.76;83.20